createdAt,value
2019-02-24T00:00:41.082Z,28.00
2019-02-24T00:01:41.056Z,26.30
2019-02-24T00:02:41.030Z,25.20
2019-02-24T00:03:41.009Z,28.50
2019-02-24T00:04:40.979Z,27.10
2019-02-24T00:05:40.958Z,27.60
2019-02-24T00:06:40.930Z,26.30
2019-02-24T00:07:40.912Z,27.40
2019-02-24T00:08:40.886Z,28.70
2019-02-24T00:09:40.855Z,26.00
2019-02-24T00:10:40.837Z,27.60
2019-02-24T00:11:40.802Z,26.90
2019-02-24T00:12:40.780Z,28.60
2019-02-24T00:13:40.756Z,26.90
2019-02-24T00:14:40.726Z,31.10
2019-02-24T00:15:40.700Z,25.30
2019-02-24T00:16:40.726Z,26.50
2019-02-24T00:17:40.658Z,25.50
2019-02-24T00:18:40.627Z,28.30
2019-02-24T00:19:40.605Z,31.40
2019-02-24T00:20:40.576Z,29.00
2019-02-24T00:21:40.561Z,27.30
2019-02-24T00:22:40.525Z,34.20
2019-02-24T00:23:40.498Z,26.30
2019-02-24T00:24:40.472Z,29.90
2019-02-24T00:25:40.467Z,28.40
2019-02-24T00:26:40.445Z,25.90
2019-02-24T00:27:40.405Z,25.60
2019-02-24T00:28:40.372Z,27.00
2019-02-24T00:29:40.348Z,27.60
2019-02-24T00:30:40.325Z,27.30
2019-02-24T00:31:40.296Z,25.90
2019-02-24T00:32:40.277Z,25.90
2019-02-24T00:33:40.247Z,27.70
2019-02-24T00:34:40.220Z,27.20
2019-02-24T00:35:40.194Z,25.90
2019-02-24T00:36:40.165Z,28.30
2019-02-24T00:37:40.141Z,28.90
2019-02-24T00:38:40.115Z,29.90
2019-02-24T00:39:40.090Z,30.40
2019-02-24T00:40:40.075Z,28.10
2019-02-24T00:41:40.041Z,28.30
2019-02-24T00:42:40.013Z,26.90
2019-02-24T00:43:39.996Z,27.20
2019-02-24T00:44:39.963Z,28.60
2019-02-24T00:45:39.951Z,27.00
2019-02-24T00:46:39.911Z,29.20
2019-02-24T00:47:39.891Z,28.40
2019-02-24T00:48:39.859Z,27.80
2019-02-24T00:49:39.926Z,27.80
2019-02-24T00:50:39.812Z,25.80
2019-02-24T00:51:39.782Z,28.40
2019-02-24T00:52:39.756Z,24.40
2019-02-24T00:53:39.741Z,28.80
2019-02-24T00:54:39.708Z,30.00
2019-02-24T00:55:39.682Z,29.60
2019-02-24T00:56:39.665Z,27.90
2019-02-24T00:57:39.633Z,26.50
2019-02-24T00:58:39.604Z,26.40
2019-02-24T00:59:39.577Z,29.90
2019-02-24T01:00:39.565Z,26.90
2019-02-24T01:01:39.535Z,29.00
2019-02-24T01:02:39.504Z,31.70
2019-02-24T01:03:39.476Z,27.80
2019-02-24T01:04:39.450Z,28.50
2019-02-24T01:05:39.423Z,28.60
2019-02-24T01:06:39.402Z,26.80
2019-02-24T01:07:39.379Z,27.00
2019-02-24T01:08:39.346Z,30.40
2019-02-24T01:09:39.320Z,32.70
2019-02-24T01:10:39.304Z,28.50
2019-02-24T01:11:39.273Z,28.60
2019-02-24T01:12:39.244Z,34.60
2019-02-24T01:13:39.238Z,33.70
2019-02-24T01:14:39.197Z,32.00
2019-02-24T01:15:39.173Z,31.10
2019-02-24T01:16:39.142Z,30.60
2019-02-24T01:17:39.267Z,26.40
2019-02-24T01:18:39.091Z,34.20
2019-02-24T01:19:39.069Z,30.90
2019-02-24T01:20:39.042Z,30.70
2019-02-24T01:21:39.016Z,30.30
2019-02-24T01:22:39.001Z,30.50
2019-02-24T01:23:38.964Z,30.20
2019-02-24T01:24:38.937Z,31.70
2019-02-24T01:25:38.910Z,28.60
2019-02-24T01:26:38.895Z,28.30
2019-02-24T01:27:38.885Z,27.00
2019-02-24T01:28:38.849Z,29.10
2019-02-24T01:29:38.805Z,33.40
2019-02-24T01:30:38.790Z,28.70
2019-02-24T01:31:38.763Z,30.10
2019-02-24T01:32:38.737Z,29.30
2019-02-24T01:33:38.704Z,30.90
2019-02-24T01:34:38.693Z,30.70
2019-02-24T01:35:38.650Z,32.40
2019-02-24T01:36:38.624Z,33.40
2019-02-24T01:37:38.599Z,30.80
2019-02-24T01:38:38.578Z,30.20
2019-02-24T01:39:38.554Z,32.00
2019-02-24T01:40:38.523Z,28.60
2019-02-24T01:41:38.493Z,30.30
2019-02-24T01:42:38.469Z,29.40
2019-02-24T01:43:38.441Z,31.20
2019-02-24T01:44:38.416Z,34.10
2019-02-24T01:45:38.393Z,27.20
2019-02-24T01:46:39.174Z,30.80
2019-02-24T01:47:38.341Z,30.70
2019-02-24T01:48:38.320Z,30.00
2019-02-24T01:49:38.296Z,30.80
2019-02-24T01:50:38.265Z,28.90
2019-02-24T01:51:38.247Z,34.60
2019-02-24T01:52:38.207Z,29.50
2019-02-24T01:53:38.191Z,30.50
2019-02-24T01:54:38.156Z,31.70
2019-02-24T01:55:38.144Z,29.80
2019-02-24T01:56:38.151Z,31.00
2019-02-24T01:57:38.082Z,29.20
2019-02-24T01:58:38.053Z,30.10
2019-02-24T01:59:38.027Z,30.00
2019-02-24T02:00:38.000Z,29.80
2019-02-24T02:01:37.977Z,30.90
2019-02-24T02:02:37.949Z,30.20
2019-02-24T02:03:37.925Z,30.50
2019-02-24T02:04:37.911Z,31.30
2019-02-24T02:05:37.870Z,29.80
2019-02-24T02:06:37.849Z,29.20
2019-02-24T02:07:37.815Z,30.40
2019-02-24T02:08:37.803Z,30.10
2019-02-24T02:09:37.771Z,30.40
2019-02-24T02:10:37.739Z,31.90
2019-02-24T02:11:37.715Z,31.00
2019-02-24T02:12:37.687Z,31.30
2019-02-24T02:13:37.662Z,29.70
2019-02-24T02:14:37.639Z,36.70
2019-02-24T02:15:37.617Z,35.00
2019-02-24T02:16:37.583Z,32.70
2019-02-24T02:17:37.564Z,32.60
2019-02-24T02:18:37.532Z,32.20
2019-02-24T02:19:37.503Z,30.80
2019-02-24T02:20:37.479Z,31.80
2019-02-24T02:21:37.453Z,36.60
2019-02-24T02:22:37.427Z,32.90
2019-02-24T02:23:37.399Z,33.80
2019-02-24T02:24:37.373Z,32.60
2019-02-24T02:25:37.347Z,31.90
2019-02-24T02:26:37.320Z,33.10
2019-02-24T02:27:37.302Z,32.40
2019-02-24T02:28:43.829Z,33.40
2019-02-24T02:29:37.244Z,35.10
2019-02-24T02:30:37.220Z,35.60
2019-02-24T02:31:37.191Z,35.10
2019-02-24T02:32:37.166Z,31.10
2019-02-24T02:33:37.137Z,32.30
2019-02-24T02:34:37.113Z,35.80
2019-02-24T02:35:37.086Z,33.80
2019-02-24T02:36:37.057Z,31.80
2019-02-24T02:37:37.045Z,31.50
2019-02-24T02:38:37.011Z,32.60
2019-02-24T02:39:36.981Z,32.80
2019-02-24T02:40:36.955Z,32.10
2019-02-24T02:41:38.805Z,34.90
2019-02-24T02:42:36.903Z,32.80
2019-02-24T02:43:36.877Z,31.20
2019-02-24T02:44:36.851Z,32.60
2019-02-24T02:45:36.830Z,36.10
2019-02-24T02:46:36.804Z,31.70
2019-02-24T02:47:36.769Z,31.80
2019-02-24T02:48:36.747Z,32.80
2019-02-24T02:49:36.719Z,30.60
2019-02-24T02:50:36.695Z,34.60
2019-02-24T02:51:36.668Z,32.90
2019-02-24T02:52:36.649Z,34.20
2019-02-24T02:53:36.618Z,32.40
2019-02-24T02:54:36.589Z,32.50
2019-02-24T02:55:36.558Z,33.90
2019-02-24T02:56:36.534Z,33.10
2019-02-24T02:57:36.521Z,32.60
2019-02-24T02:58:36.482Z,34.70
2019-02-24T02:59:36.453Z,33.00
2019-02-24T03:00:36.429Z,32.90
2019-02-24T03:01:36.406Z,32.00
2019-02-24T03:02:36.379Z,33.00
2019-02-24T03:03:36.351Z,33.60
2019-02-24T03:04:36.323Z,32.60
2019-02-24T03:05:36.298Z,30.90
2019-02-24T03:06:36.270Z,32.00
2019-02-24T03:07:36.259Z,33.20
2019-02-24T03:08:36.225Z,32.90
2019-02-24T03:09:36.190Z,32.90
2019-02-24T03:10:36.165Z,33.20
2019-02-24T03:11:36.137Z,34.60
2019-02-24T03:12:36.113Z,35.70
2019-02-24T03:13:36.085Z,31.30
2019-02-24T03:14:36.060Z,33.20
2019-02-24T03:15:36.035Z,34.20
2019-02-24T03:16:36.006Z,33.00
2019-02-24T03:17:35.980Z,33.40
2019-02-24T03:18:35.963Z,31.60
2019-02-24T03:19:35.928Z,33.00
2019-02-24T03:20:35.900Z,35.00
2019-02-24T03:21:35.873Z,36.90
2019-02-24T03:22:35.847Z,31.70
2019-02-24T03:23:35.821Z,32.40
2019-02-24T03:24:35.801Z,32.30
2019-02-24T03:25:35.767Z,33.80
2019-02-24T03:26:35.743Z,33.40
2019-02-24T03:27:35.715Z,32.20
2019-02-24T03:28:35.707Z,34.50
2019-02-24T03:29:35.664Z,33.60
2019-02-24T03:30:35.640Z,32.60
2019-02-24T03:31:35.611Z,32.90
2019-02-24T03:32:35.596Z,33.20
2019-02-24T03:33:35.558Z,31.30
2019-02-24T03:34:35.535Z,31.40
2019-02-24T03:35:35.504Z,31.40
2019-02-24T03:36:35.478Z,32.70
2019-02-24T03:37:35.452Z,31.30
2019-02-24T03:38:35.425Z,31.60
2019-02-24T03:39:35.397Z,33.20
2019-02-24T03:40:35.386Z,31.80
2019-02-24T03:41:35.346Z,35.50
2019-02-24T03:42:35.473Z,30.50
2019-02-24T03:43:35.293Z,31.20
2019-02-24T03:44:35.268Z,32.00
2019-02-24T03:45:35.240Z,32.20
2019-02-24T03:46:35.213Z,32.30
2019-02-24T03:47:35.185Z,30.40
2019-02-24T03:48:35.159Z,31.90
2019-02-24T03:49:35.140Z,31.00
2019-02-24T03:50:35.108Z,29.90
2019-02-24T03:51:35.091Z,35.10
2019-02-24T03:52:35.052Z,33.70
2019-02-24T03:53:35.077Z,32.50
2019-02-24T03:54:35.009Z,31.50
2019-02-24T03:55:34.974Z,35.00
2019-02-24T03:56:34.947Z,30.10
2019-02-24T03:57:34.923Z,32.20
2019-02-24T03:58:34.896Z,30.90
2019-02-24T03:59:34.872Z,31.40
2019-02-24T04:00:34.841Z,31.70
2019-02-24T04:01:34.816Z,34.00
2019-02-24T04:02:34.788Z,32.50
2019-02-24T04:03:34.761Z,30.10
2019-02-24T04:04:34.737Z,33.40
2019-02-24T04:05:34.708Z,31.20
2019-02-24T04:06:34.682Z,31.70
2019-02-24T04:07:34.655Z,31.10
2019-02-24T04:08:34.628Z,33.10
2019-02-24T04:09:34.605Z,32.00
2019-02-24T04:10:34.578Z,32.60
2019-02-24T04:11:34.549Z,33.20
2019-02-24T04:12:34.524Z,33.70
2019-02-24T04:13:34.508Z,31.10
2019-02-24T04:14:34.473Z,31.40
2019-02-24T04:15:34.444Z,32.10
2019-02-24T04:16:34.419Z,28.70
2019-02-24T04:17:34.393Z,33.10
2019-02-24T04:18:34.469Z,30.80
2019-02-24T04:19:34.338Z,32.10
2019-02-24T04:20:34.325Z,34.40
2019-02-24T04:21:34.286Z,30.60
2019-02-24T04:22:34.262Z,34.30
2019-02-24T04:23:34.238Z,29.60
2019-02-24T04:24:34.259Z,29.80
2019-02-24T04:25:34.182Z,28.30
2019-02-24T04:26:34.153Z,27.80
2019-02-24T04:27:34.128Z,31.20
2019-02-24T04:28:34.101Z,31.30
2019-02-24T04:29:34.080Z,29.60
2019-02-24T04:30:34.049Z,27.50
2019-02-24T04:31:34.022Z,29.10
2019-02-24T04:32:33.994Z,30.70
2019-02-24T04:33:33.968Z,28.80
2019-02-24T04:34:33.942Z,32.00
2019-02-24T04:35:33.915Z,30.10
2019-02-24T04:36:33.889Z,32.50
2019-02-24T04:37:33.862Z,31.00
2019-02-24T04:38:33.839Z,27.90
2019-02-24T04:39:33.808Z,30.40
2019-02-24T04:40:33.781Z,31.30
2019-02-24T04:41:33.756Z,28.00
2019-02-24T04:42:33.728Z,29.20
2019-02-24T04:43:33.701Z,32.10
2019-02-24T04:44:33.676Z,31.30
2019-02-24T04:45:33.656Z,28.70
2019-02-24T04:46:33.624Z,30.60
2019-02-24T04:47:33.595Z,27.80
2019-02-24T04:48:33.585Z,31.40
2019-02-24T04:49:33.541Z,33.00
2019-02-24T04:50:33.513Z,30.20
2019-02-24T04:51:33.487Z,30.90
2019-02-24T04:52:33.469Z,29.20
2019-02-24T04:53:33.434Z,28.60
2019-02-24T04:54:33.407Z,29.50
2019-02-24T04:55:33.383Z,31.10
2019-02-24T04:56:33.356Z,28.20
2019-02-24T04:57:33.329Z,28.30
2019-02-24T04:58:33.308Z,28.80
2019-02-24T04:59:35.208Z,33.40
2019-02-24T05:00:33.260Z,28.20
2019-02-24T05:01:33.221Z,31.30
2019-02-24T05:02:33.195Z,29.30
2019-02-24T05:03:33.177Z,29.20
2019-02-24T05:04:33.142Z,29.30
2019-02-24T05:05:33.115Z,31.30
2019-02-24T05:06:33.087Z,32.00
2019-02-24T05:07:33.066Z,30.10
2019-02-24T05:08:33.040Z,27.50
2019-02-24T05:09:33.010Z,29.30
2019-02-24T05:10:32.985Z,29.70
2019-02-24T05:11:32.963Z,31.70
2019-02-24T05:12:32.928Z,29.90
2019-02-24T05:13:32.902Z,32.60
2019-02-24T05:14:32.874Z,30.00
2019-02-24T05:15:32.847Z,29.20
2019-02-24T05:16:32.828Z,28.90
2019-02-24T05:17:32.796Z,28.40
2019-02-24T05:18:32.768Z,30.60
2019-02-24T05:19:32.742Z,30.50
2019-02-24T05:20:32.715Z,30.10
2019-02-24T05:21:32.695Z,29.00
2019-02-24T05:22:32.669Z,28.50
2019-02-24T05:23:32.634Z,29.60
2019-02-24T05:24:32.623Z,30.40
2019-02-24T05:25:32.582Z,31.00
2019-02-24T05:26:32.554Z,31.10
2019-02-24T05:27:32.529Z,29.30
2019-02-24T05:28:32.501Z,33.40
2019-02-24T05:29:32.479Z,33.00
2019-02-24T05:30:32.449Z,31.50
2019-02-24T05:31:32.420Z,26.50
2019-02-24T05:32:32.403Z,29.60
2019-02-24T05:33:32.367Z,32.10
2019-02-24T05:34:32.341Z,30.70
2019-02-24T05:35:32.313Z,31.70
2019-02-24T05:36:32.301Z,32.40
2019-02-24T05:37:32.275Z,30.70
2019-02-24T05:38:32.236Z,32.40
2019-02-24T05:39:32.411Z,30.40
2019-02-24T05:40:32.190Z,29.90
2019-02-24T05:41:32.160Z,30.00
2019-02-24T05:42:32.281Z,31.00
2019-02-24T05:43:32.125Z,30.70
2019-02-24T05:44:32.076Z,27.10
2019-02-24T05:45:32.049Z,31.50
2019-02-24T05:46:32.025Z,30.90
2019-02-24T05:47:31.993Z,31.90
2019-02-24T05:48:33.696Z,32.20
2019-02-24T05:49:31.946Z,32.30
2019-02-24T05:50:31.913Z,31.80
2019-02-24T05:51:31.888Z,29.50
2019-02-24T05:52:31.860Z,29.80
2019-02-24T05:53:31.832Z,30.00
2019-02-24T05:54:31.817Z,30.50
2019-02-24T05:55:31.778Z,29.50
2019-02-24T05:56:31.760Z,30.60
2019-02-24T05:57:31.723Z,34.10
2019-02-24T05:58:31.717Z,29.60
2019-02-24T05:59:31.668Z,31.10
2019-02-24T06:00:31.642Z,28.60
2019-02-24T06:01:31.622Z,29.60
2019-02-24T06:02:31.588Z,33.30
2019-02-24T06:03:31.570Z,28.60
2019-02-24T06:04:31.541Z,31.20
2019-02-24T06:05:31.507Z,30.10
2019-02-24T06:06:31.480Z,28.70
2019-02-24T06:07:33.201Z,28.30
2019-02-24T06:08:31.432Z,27.30
2019-02-24T06:09:31.398Z,27.60
2019-02-24T06:10:31.377Z,30.20
2019-02-24T06:11:31.344Z,28.50
2019-02-24T06:12:31.406Z,32.20
2019-02-24T06:13:31.291Z,28.20
2019-02-24T06:14:31.265Z,32.30
2019-02-24T06:15:31.242Z,29.20
2019-02-24T06:16:31.210Z,28.30
2019-02-24T06:17:31.190Z,29.90
2019-02-24T06:18:31.156Z,28.90
2019-02-24T06:19:31.129Z,28.70
2019-02-24T06:20:31.100Z,27.00
2019-02-24T06:21:31.075Z,30.00
2019-02-24T06:22:31.052Z,30.00
2019-02-24T06:23:31.020Z,27.60
2019-02-24T06:24:30.997Z,27.30
2019-02-24T06:25:30.967Z,27.50
2019-02-24T06:26:30.941Z,30.30
2019-02-24T06:27:30.913Z,27.60
2019-02-24T06:28:30.887Z,29.50
2019-02-24T06:29:30.865Z,27.90
2019-02-24T06:30:30.834Z,27.50
2019-02-24T06:31:30.805Z,27.90
2019-02-24T06:32:30.778Z,27.30
2019-02-24T06:33:30.764Z,28.20
2019-02-24T06:34:30.726Z,26.80
2019-02-24T06:35:30.703Z,27.50
2019-02-24T06:36:30.671Z,25.60
2019-02-24T06:37:30.649Z,28.40
2019-02-24T06:38:30.616Z,27.90
2019-02-24T06:39:30.590Z,28.30
2019-02-24T06:40:30.561Z,29.40
2019-02-24T06:41:30.540Z,26.00
2019-02-24T06:42:30.513Z,27.70
2019-02-24T06:43:30.480Z,29.10
2019-02-24T06:44:30.456Z,29.00
2019-02-24T06:45:30.427Z,25.80
2019-02-24T06:46:30.401Z,28.00
2019-02-24T06:47:30.372Z,26.20
2019-02-24T06:48:30.348Z,29.90
2019-02-24T06:49:30.319Z,27.00
2019-02-24T06:50:35.416Z,29.30
2019-02-24T06:51:30.273Z,34.10
2019-02-24T06:52:30.252Z,35.90
2019-02-24T06:53:30.212Z,33.70
2019-02-24T06:54:30.188Z,30.10
2019-02-24T06:55:30.157Z,29.10
2019-02-24T06:56:30.132Z,28.50
2019-02-24T06:57:30.104Z,42.20
2019-02-24T06:58:30.093Z,47.40
2019-02-24T06:59:30.049Z,27.60
2019-02-24T07:00:30.026Z,30.60
2019-02-24T07:01:29.996Z,32.90
2019-02-24T07:02:29.972Z,36.50
2019-02-24T07:03:29.942Z,32.80
2019-02-24T07:04:29.914Z,29.60
2019-02-24T07:05:29.898Z,28.80
2019-02-24T07:06:29.866Z,30.40
2019-02-24T07:07:29.835Z,28.40
2019-02-24T07:08:29.821Z,29.00
2019-02-24T07:09:29.781Z,28.20
2019-02-24T07:10:29.755Z,27.90
2019-02-24T07:11:29.729Z,27.20
2019-02-24T07:12:29.701Z,29.40
2019-02-24T07:13:29.673Z,27.80
2019-02-24T07:14:29.647Z,30.50
2019-02-24T07:15:29.626Z,28.60
2019-02-24T07:16:29.598Z,28.80
2019-02-24T07:17:29.565Z,28.90
2019-02-24T07:18:29.538Z,28.50
2019-02-24T07:19:29.511Z,29.20
2019-02-24T07:20:29.487Z,30.10
2019-02-24T07:21:29.468Z,36.70
2019-02-24T07:22:29.433Z,43.70
2019-02-24T07:23:29.406Z,27.00
2019-02-24T07:24:29.393Z,26.00
2019-02-24T07:25:29.355Z,25.00
2019-02-24T07:26:29.327Z,29.40
2019-02-24T07:27:29.298Z,30.50
2019-02-24T07:28:29.269Z,30.10
2019-02-24T07:29:29.245Z,26.90
2019-02-24T07:30:29.219Z,36.00
2019-02-24T07:31:29.190Z,29.90
2019-02-24T07:32:29.163Z,27.40
2019-02-24T07:33:29.146Z,28.90
2019-02-24T07:34:29.171Z,28.20
2019-02-24T07:35:29.085Z,29.60
2019-02-24T07:36:29.066Z,30.60
2019-02-24T07:37:29.036Z,28.20
2019-02-24T07:38:29.009Z,29.50
2019-02-24T07:39:28.978Z,30.90
2019-02-24T07:40:28.950Z,28.90
2019-02-24T07:41:28.934Z,28.70
2019-02-24T07:42:28.899Z,30.10
2019-02-24T07:43:28.871Z,29.50
2019-02-24T07:44:28.845Z,30.30
2019-02-24T07:45:28.928Z,27.00
2019-02-24T07:46:28.791Z,29.10
2019-02-24T07:47:28.773Z,27.90
2019-02-24T07:48:28.788Z,30.20
2019-02-24T07:49:28.712Z,27.80
2019-02-24T07:50:28.690Z,27.50
2019-02-24T07:51:28.662Z,26.80
2019-02-24T07:52:28.630Z,27.50
2019-02-24T07:53:28.612Z,29.00
2019-02-24T07:54:28.579Z,30.70
2019-02-24T07:55:28.553Z,27.60
2019-02-24T07:56:28.533Z,29.10
2019-02-24T07:57:28.500Z,26.80
2019-02-24T07:58:28.474Z,27.70
2019-02-24T07:59:28.449Z,27.50
2019-02-24T08:00:32.217Z,25.70
2019-02-24T08:01:28.396Z,29.70
2019-02-24T08:02:28.368Z,24.20
2019-02-24T08:03:28.340Z,24.70
2019-02-24T08:04:28.323Z,30.20
2019-02-24T08:05:28.296Z,29.20
2019-02-24T08:06:28.263Z,27.50
2019-02-24T08:07:28.236Z,26.40
2019-02-24T08:08:28.209Z,30.70
2019-02-24T08:09:28.186Z,27.10
2019-02-24T08:10:28.165Z,27.90
2019-02-24T08:11:28.144Z,26.80
2019-02-24T08:12:28.106Z,27.00
2019-02-24T08:13:28.077Z,27.90
2019-02-24T08:14:28.049Z,26.60
2019-02-24T08:15:28.024Z,25.20
2019-02-24T08:16:27.999Z,27.00
2019-02-24T08:17:27.972Z,27.90
2019-02-24T08:18:27.946Z,25.70
2019-02-24T08:19:27.925Z,25.20
2019-02-24T08:20:27.911Z,25.60
2019-02-24T08:21:27.872Z,24.70
2019-02-24T08:22:27.857Z,23.00
2019-02-24T08:23:27.823Z,22.50
2019-02-24T08:24:29.193Z,21.50
2019-02-24T08:25:27.761Z,22.80
2019-02-24T08:26:27.741Z,24.40
2019-02-24T08:27:27.730Z,21.60
2019-02-24T08:28:27.698Z,20.30
2019-02-24T08:29:27.659Z,20.10
2019-02-24T08:30:27.633Z,20.40
2019-02-24T08:31:27.606Z,19.60
2019-02-24T08:32:27.580Z,21.10
2019-02-24T08:33:27.564Z,18.90
2019-02-24T08:34:27.542Z,22.10
2019-02-24T08:35:27.515Z,17.50
2019-02-24T08:36:27.476Z,20.30
2019-02-24T08:37:27.449Z,18.60
2019-02-24T08:38:27.425Z,20.20
2019-02-24T08:39:27.398Z,20.90
2019-02-24T08:40:27.391Z,18.30
2019-02-24T08:41:27.355Z,22.30
2019-02-24T08:42:27.321Z,19.70
2019-02-24T08:43:27.298Z,18.80
2019-02-24T08:44:27.271Z,18.00
2019-02-24T08:45:27.242Z,21.60
2019-02-24T08:46:27.218Z,19.20
2019-02-24T08:47:27.206Z,17.70
2019-02-24T08:48:27.168Z,23.80
2019-02-24T08:49:27.140Z,19.10
2019-02-24T08:50:27.118Z,20.70
2019-02-24T08:51:27.115Z,18.60
2019-02-24T08:52:27.075Z,18.60
2019-02-24T08:53:27.065Z,17.60
2019-02-24T08:54:27.017Z,17.20
2019-02-24T08:55:26.987Z,18.30
2019-02-24T08:56:26.969Z,24.70
2019-02-24T08:57:26.937Z,21.20
2019-02-24T08:58:26.913Z,19.40
2019-02-24T08:59:26.887Z,19.40
2019-02-24T09:00:26.859Z,18.00
2019-02-24T09:01:26.836Z,16.40
2019-02-24T09:02:26.809Z,17.60
2019-02-24T09:03:26.790Z,18.50
2019-02-24T09:04:26.777Z,17.60
2019-02-24T09:05:26.734Z,18.40
2019-02-24T09:06:26.722Z,17.40
2019-02-24T09:07:26.681Z,16.60
2019-02-24T09:08:26.656Z,17.70
2019-02-24T09:09:26.642Z,16.90
2019-02-24T09:10:26.606Z,18.10
2019-02-24T09:11:26.581Z,17.80
2019-02-24T09:12:26.557Z,19.60
2019-02-24T09:13:26.532Z,18.10
2019-02-24T09:14:26.519Z,16.50
2019-02-24T09:15:26.485Z,20.70
2019-02-24T09:16:26.461Z,16.90
2019-02-24T09:17:26.445Z,18.50
2019-02-24T09:18:26.416Z,18.50
2019-02-24T09:19:26.391Z,15.20
2019-02-24T09:20:26.372Z,17.20
2019-02-24T09:21:26.350Z,17.10
2019-02-24T09:22:26.330Z,18.50
2019-02-24T09:23:26.303Z,16.70
2019-02-24T09:24:26.283Z,15.40
2019-02-24T09:25:26.266Z,16.60
2019-02-24T09:26:26.555Z,16.10
2019-02-24T09:27:26.421Z,15.70
2019-02-24T09:28:26.201Z,15.50
2019-02-24T09:29:26.177Z,15.60
2019-02-24T09:30:26.172Z,16.10
2019-02-24T09:31:26.163Z,16.40
2019-02-24T09:32:26.117Z,18.00
2019-02-24T09:33:26.108Z,16.70
2019-02-24T09:34:26.080Z,18.60
2019-02-24T09:35:26.062Z,16.90
2019-02-24T09:36:26.047Z,16.80
2019-02-24T09:37:26.039Z,15.50
2019-02-24T09:38:26.005Z,16.30
2019-02-24T09:39:25.986Z,17.70
2019-02-24T09:40:25.968Z,15.40
2019-02-24T09:41:25.958Z,16.20
2019-02-24T09:42:25.933Z,16.00
2019-02-24T09:43:25.924Z,16.30
2019-02-24T09:44:25.907Z,17.30
2019-02-24T09:45:25.886Z,16.30
2019-02-24T09:46:25.864Z,18.60
2019-02-24T09:47:25.852Z,15.10
2019-02-24T09:48:25.838Z,17.20
2019-02-24T09:49:25.814Z,14.70
2019-02-24T09:50:25.800Z,15.40
2019-02-24T09:51:25.780Z,15.00
2019-02-24T09:52:25.776Z,14.60
2019-02-24T09:53:25.747Z,15.60
2019-02-24T09:54:25.736Z,14.90
2019-02-24T09:55:25.717Z,16.10
2019-02-24T09:56:25.702Z,13.80
2019-02-24T09:57:25.688Z,14.70
2019-02-24T09:58:25.677Z,15.50
2019-02-24T09:59:25.656Z,15.20
2019-02-24T10:00:25.653Z,14.30
2019-02-24T10:01:25.625Z,15.80
2019-02-24T10:02:25.608Z,16.00
2019-02-24T10:03:25.744Z,13.80
2019-02-24T10:04:25.586Z,16.80
2019-02-24T10:05:25.567Z,14.10
2019-02-24T10:06:25.552Z,14.70
2019-02-24T10:07:25.535Z,14.10
2019-02-24T10:08:25.529Z,16.00
2019-02-24T10:09:25.509Z,15.00
2019-02-24T10:10:25.490Z,13.50
2019-02-24T10:11:25.477Z,14.00
2019-02-24T10:12:25.458Z,12.50
2019-02-24T10:13:25.452Z,13.70
2019-02-24T10:14:25.468Z,13.10
2019-02-24T10:15:25.425Z,13.00
2019-02-24T10:16:25.400Z,14.00
2019-02-24T10:17:25.392Z,13.40
2019-02-24T10:18:25.377Z,13.70
2019-02-24T10:19:25.355Z,12.30
2019-02-24T10:20:25.338Z,13.40
2019-02-24T10:21:25.335Z,11.50
2019-02-24T10:22:25.312Z,11.70
2019-02-24T10:23:27.078Z,13.30
2019-02-24T10:24:25.279Z,12.90
2019-02-24T10:25:25.265Z,13.20
2019-02-24T10:26:25.320Z,14.60
2019-02-24T10:27:25.234Z,12.70
2019-02-24T10:28:25.225Z,13.30
2019-02-24T10:29:25.203Z,13.30
2019-02-24T10:30:25.199Z,14.20
2019-02-24T10:31:25.174Z,14.70
2019-02-24T10:32:25.163Z,12.80
2019-02-24T10:33:25.143Z,11.50
2019-02-24T10:34:25.143Z,13.60
2019-02-24T10:35:25.134Z,15.00
2019-02-24T10:36:25.101Z,12.90
2019-02-24T10:37:25.089Z,13.80
2019-02-24T10:38:25.072Z,11.50
2019-02-24T10:39:29.605Z,10.10
2019-02-24T10:40:25.059Z,10.70
2019-02-24T10:41:25.029Z,11.70
2019-02-24T10:42:25.031Z,12.00
2019-02-24T10:43:24.999Z,9.30
2019-02-24T10:44:24.998Z,10.70
2019-02-24T10:45:24.980Z,10.90
2019-02-24T10:46:24.958Z,10.20
2019-02-24T10:47:24.965Z,12.90
2019-02-24T10:48:24.930Z,12.10
2019-02-24T10:49:25.014Z,12.20
2019-02-24T10:50:24.913Z,11.30
2019-02-24T10:51:25.484Z,10.40
2019-02-24T10:52:24.882Z,11.80
2019-02-24T10:53:24.861Z,10.90
2019-02-24T10:54:24.853Z,11.40
2019-02-24T10:55:24.841Z,10.50
2019-02-24T10:56:24.819Z,11.60
2019-02-24T10:57:24.799Z,11.80
2019-02-24T10:58:24.793Z,12.20
2019-02-24T10:59:24.773Z,10.40
2019-02-24T11:00:24.782Z,10.40
2019-02-24T11:01:29.641Z,9.70
2019-02-24T11:02:24.785Z,13.20
2019-02-24T11:03:24.715Z,12.20
2019-02-24T11:04:24.710Z,10.90
2019-02-24T11:05:24.697Z,11.20
2019-02-24T11:06:24.675Z,11.70
2019-02-24T11:07:24.659Z,9.90
2019-02-24T11:08:24.652Z,10.80
2019-02-24T11:09:24.660Z,10.30
2019-02-24T11:10:24.618Z,9.80
2019-02-24T11:11:24.602Z,10.70
2019-02-24T11:12:24.588Z,11.00
2019-02-24T11:13:24.581Z,11.40
2019-02-24T11:14:24.565Z,12.30
2019-02-24T11:15:24.561Z,11.60
2019-02-24T11:16:24.532Z,9.30
2019-02-24T11:17:24.527Z,10.40
2019-02-24T11:18:24.531Z,11.40
2019-02-24T11:19:24.499Z,11.40
2019-02-24T11:20:24.481Z,10.90
2019-02-24T11:21:24.464Z,13.40
2019-02-24T11:22:24.458Z,10.60
2019-02-24T11:23:24.448Z,10.40
2019-02-24T11:24:24.436Z,10.30
2019-02-24T11:25:24.757Z,11.30
2019-02-24T11:26:24.401Z,10.20
2019-02-24T11:27:24.386Z,10.80
2019-02-24T11:28:24.373Z,12.90
2019-02-24T11:29:24.361Z,10.00
2019-02-24T11:30:24.341Z,13.20
2019-02-24T11:31:24.323Z,11.50
2019-02-24T11:32:24.322Z,10.50
2019-02-24T11:33:24.305Z,9.10
2019-02-24T11:34:24.332Z,10.10
2019-02-24T11:35:24.281Z,10.20
2019-02-24T11:36:24.260Z,11.40
2019-02-24T11:37:24.250Z,10.60
2019-02-24T11:38:24.238Z,10.30
2019-02-24T11:39:24.215Z,11.30
2019-02-24T11:40:24.206Z,10.60
2019-02-24T11:41:24.187Z,10.40
2019-02-24T11:42:24.173Z,14.80
2019-02-24T11:43:24.159Z,10.50
2019-02-24T11:44:24.152Z,9.40
2019-02-24T11:45:24.130Z,12.50
2019-02-24T11:46:24.116Z,10.30
2019-02-24T11:47:24.103Z,11.60
2019-02-24T11:48:24.115Z,11.90
2019-02-24T11:49:24.180Z,9.10
2019-02-24T11:50:24.070Z,9.70
2019-02-24T11:51:24.056Z,10.40
2019-02-24T11:52:24.032Z,9.40
2019-02-24T11:53:24.047Z,8.50
2019-02-24T11:54:24.006Z,9.30
2019-02-24T11:55:23.986Z,13.90
2019-02-24T11:56:24.073Z,13.80
2019-02-24T11:57:23.957Z,10.00
2019-02-24T11:58:23.944Z,10.10
2019-02-24T11:59:23.928Z,10.70
2019-02-24T12:00:23.916Z,10.30
2019-02-24T12:01:23.905Z,10.20
2019-02-24T12:02:23.893Z,8.60
2019-02-24T12:03:23.877Z,9.50
2019-02-24T12:04:23.853Z,10.00
2019-02-24T12:05:23.839Z,11.10
2019-02-24T12:06:23.825Z,9.80
2019-02-24T12:07:23.814Z,10.90
2019-02-24T12:08:23.815Z,9.20
2019-02-24T12:09:23.784Z,9.00
2019-02-24T12:10:23.764Z,9.20
2019-02-24T12:11:23.748Z,9.40
2019-02-24T12:12:23.732Z,10.00
2019-02-24T12:13:23.723Z,8.30
2019-02-24T12:14:23.709Z,11.50
2019-02-24T12:15:23.683Z,9.30
2019-02-24T12:16:23.669Z,9.90
2019-02-24T12:17:23.653Z,9.30
2019-02-24T12:18:23.649Z,9.00
2019-02-24T12:19:23.626Z,12.10
2019-02-24T12:20:23.614Z,9.90
2019-02-24T12:21:23.599Z,9.10
2019-02-24T12:22:23.573Z,8.80
2019-02-24T12:23:23.560Z,7.40
2019-02-24T12:24:23.542Z,7.90
2019-02-24T12:25:23.528Z,8.20
2019-02-24T12:26:23.511Z,9.10
2019-02-24T12:27:23.500Z,9.20
2019-02-24T12:28:23.487Z,8.50
2019-02-24T12:29:23.472Z,9.50
2019-02-24T12:30:23.448Z,9.00
2019-02-24T12:31:23.434Z,8.10
2019-02-24T12:32:23.441Z,8.40
2019-02-24T12:33:23.395Z,10.80
2019-02-24T12:34:23.387Z,8.90
2019-02-24T12:35:23.370Z,8.10
2019-02-24T12:36:23.362Z,9.00
2019-02-24T12:37:23.336Z,9.20
2019-02-24T12:38:23.313Z,12.80
2019-02-24T12:39:23.301Z,10.80
2019-02-24T12:40:23.289Z,9.60
2019-02-24T12:41:23.285Z,11.00
2019-02-24T12:42:23.255Z,10.50
2019-02-24T12:43:23.285Z,10.30
2019-02-24T12:44:23.213Z,9.90
2019-02-24T12:45:23.220Z,10.70
2019-02-24T12:46:23.194Z,12.80
2019-02-24T12:47:23.171Z,14.80
2019-02-24T12:48:23.155Z,10.20
2019-02-24T12:49:23.138Z,10.70
2019-02-24T12:50:23.114Z,13.20
2019-02-24T12:51:23.096Z,9.40
2019-02-24T12:52:23.078Z,9.30
2019-02-24T12:53:23.061Z,10.00
2019-02-24T12:54:23.046Z,12.20